PWSweather.com
Personal Weather Stations
Station Observations
TERNAARD
Friesland, TernaardNL

FrieslandTernaardNL

Lat: 53.380557, Lon: 5.969774

Elevation: 3

Station Type: Davis Vantage Pro-2

www.weerstation-ternaard.nl

High Low Average
Temperature 55.5°F13.1°C 51.7°F10.9°C 53.8°F12.1°C
Dew Point 54.4°F12.4°C 50.0°F10.0°C 52.3°F11.3°C
Winds 6.9 mph 11.1 kmh Calm Calm 2.0 mph S3.2 kmh S
Wind Gusts 13.8 mph22.2 kmh -- 4.0 mph6.4 kmh
Humidity 96% 91% 94%
Pressure 30.09 in1019.0 mb 29.89 in1012.2 mb -
Precipitation 0.30 in7.6 mm - -
Hour Temp Dew Point Humidity Winds Wind Gusts Pressure Precip Precip Rate Daily Precip Total
12:03 AM 53.0°F11.7°C 51.6°F10.9°C 95% 2.3 mph E3.7 kmh E 3.4 mph5.5 kmh 29.91 in1012.9 mb - 0.00 in0.0 mm 0.00 in0.0 mm
12:09 AM 53.1°F11.7°C 51.7°F10.9°C 95% 2.3 mph E3.7 kmh E 3.4 mph5.5 kmh 29.91 in1012.9 mb - 0.00 in0.0 mm 0.00 in0.0 mm
12:15 AM 53.2°F11.8°C 52.1°F11.2°C 96% 1.1 mph E1.8 kmh E 3.4 mph5.5 kmh 29.91 in1012.9 mb - 0.00 in0.0 mm 0.00 in0.0 mm
12:20 AM 53.3°F11.8°C 52.2°F11.2°C 96% 3.4 mph ESE5.5 kmh ESE 4.6 mph7.4 kmh 29.90 in1012.5 mb - 0.00 in0.0 mm 0.00 in0.0 mm
12:26 AM 53.4°F11.9°C 52.0°F11.1°C 95% 2.3 mph ESE3.7 kmh ESE 5.8 mph9.3 kmh 29.89 in1012.2 mb - 0.00 in0.0 mm 0.00 in0.0 mm
12:31 AM 53.5°F11.9°C 52.1°F11.2°C 95% 2.3 mph SE3.7 kmh SE 3.4 mph5.5 kmh 29.90 in1012.5 mb - 0.00 in0.0 mm 0.00 in0.0 mm
12:37 AM 53.5°F11.9°C 52.1°F11.2°C 95% 2.3 mph ESE3.7 kmh ESE 4.6 mph7.4 kmh 29.90 in1012.5 mb - 0.00 in0.0 mm 0.00 in0.0 mm
12:43 AM 53.5°F11.9°C 52.1°F11.2°C 95% 2.3 mph E3.7 kmh E 3.4 mph5.5 kmh 29.91 in1012.9 mb - 0.00 in0.0 mm 0.00 in0.0 mm
12:48 AM 53.5°F11.9°C 52.1°F11.2°C 95% 2.3 mph E3.7 kmh E 4.6 mph7.4 kmh 29.93 in1013.5 mb - 0.00 in0.0 mm 0.00 in0.0 mm
12:54 AM 53.6°F12.0°C 52.2°F11.2°C 95% 1.1 mph E1.8 kmh E 3.4 mph5.5 kmh 29.93 in1013.5 mb - 0.00 in0.0 mm 0.00 in0.0 mm
01:00 AM 53.6°F12.0°C 52.3°F11.3°C 95% 2.3 mph E3.7 kmh E 5.8 mph9.3 kmh 29.93 in1013.5 mb - 0.00 in0.0 mm 0.00 in0.0 mm
01:05 AM 53.6°F12.0°C 52.2°F11.2°C 95% 1.1 mph E1.8 kmh E 4.6 mph7.4 kmh 29.92 in1013.2 mb - 0.00 in0.0 mm 0.00 in0.0 mm
01:11 AM 53.5°F11.9°C 51.8°F11.0°C 94% 2.3 mph E3.7 kmh E 4.6 mph7.4 kmh 29.93 in1013.5 mb - 0.00 in0.0 mm 0.00 in0.0 mm
01:16 AM 53.5°F11.9°C 51.8°F11.0°C 94% 1.1 mph ESE1.8 kmh ESE 2.3 mph3.7 kmh 29.93 in1013.5 mb - 0.00 in0.0 mm 0.00 in0.0 mm
01:22 AM 53.6°F12.0°C 51.9°F11.1°C 94% 3.4 mph ESE5.5 kmh ESE 6.9 mph11.1 kmh 29.93 in1013.5 mb - 0.00 in0.0 mm 0.00 in0.0 mm
01:28 AM 53.6°F12.0°C 51.9°F11.1°C 94% 2.3 mph ESE3.7 kmh ESE 3.4 mph5.5 kmh 29.93 in1013.5 mb - 0.00 in0.0 mm 0.00 in0.0 mm
01:33 AM 53.7°F12.1°C 52.0°F11.1°C 94% 2.3 mph SE3.7 kmh SE 3.4 mph5.5 kmh 29.93 in1013.5 mb - 0.00 in0.0 mm 0.00 in0.0 mm
01:39 AM 53.7°F12.1°C 52.0°F11.1°C 94% 2.3 mph E3.7 kmh E 4.6 mph7.4 kmh 29.93 in1013.5 mb - 0.00 in0.0 mm 0.00 in0.0 mm
01:45 AM 53.8°F12.1°C 52.2°F11.2°C 94% 2.3 mph E3.7 kmh E 3.4 mph5.5 kmh 29.91 in1012.9 mb - 0.00 in0.0 mm 0.00 in0.0 mm
01:50 AM 53.8°F12.1°C 52.1°F11.2°C 94% 1.1 mph E1.8 kmh E 3.4 mph5.5 kmh 29.91 in1012.9 mb - 0.00 in0.0 mm 0.00 in0.0 mm
01:56 AM 53.8°F12.1°C 52.1°F11.2°C 94% 2.3 mph E3.7 kmh E 3.4 mph5.5 kmh 29.91 in1012.9 mb - 0.00 in0.0 mm 0.00 in0.0 mm
02:01 AM 53.8°F12.1°C 52.1°F11.2°C 94% 2.3 mph ESE3.7 kmh ESE 3.4 mph5.5 kmh 29.92 in1013.2 mb - 0.00 in0.0 mm 0.00 in0.0 mm
02:07 AM 53.8°F12.1°C 52.1°F11.2°C 94% 2.3 mph E3.7 kmh E 3.4 mph5.5 kmh 29.92 in1013.2 mb - 0.00 in0.0 mm 0.00 in0.0 mm
02:13 AM 53.8°F12.1°C 52.1°F11.2°C 94% 1.1 mph ESE1.8 kmh ESE 1.1 mph1.8 kmh 29.93 in1013.5 mb - 0.00 in0.0 mm 0.00 in0.0 mm
02:18 AM 54.0°F12.2°C 52.3°F11.3°C 94% 4.6 mph E7.4 kmh E 6.9 mph11.1 kmh 29.92 in1013.2 mb - 0.00 in0.0 mm 0.00 in0.0 mm
02:24 AM 54.1°F12.3°C 52.4°F11.3°C 94% 4.6 mph E7.4 kmh E 5.8 mph9.3 kmh 29.92 in1013.2 mb - 0.00 in0.0 mm 0.00 in0.0 mm
02:30 AM 54.1°F12.3°C 52.4°F11.3°C 94% 1.1 mph E1.8 kmh E 2.3 mph3.7 kmh 29.91 in1012.9 mb - 0.00 in0.0 mm 0.00 in0.0 mm
02:35 AM 54.1°F12.3°C 52.4°F11.3°C 94% 3.4 mph E5.5 kmh E 4.6 mph7.4 kmh 29.91 in1012.9 mb - 0.00 in0.0 mm 0.00 in0.0 mm
02:41 AM 54.2°F12.3°C 52.2°F11.2°C 93% 2.3 mph E3.7 kmh E 3.4 mph5.5 kmh 29.92 in1013.2 mb - 0.00 in0.0 mm 0.00 in0.0 mm
02:46 AM 54.2°F12.3°C 52.2°F11.2°C 93% 1.1 mph E1.8 kmh E 2.3 mph3.7 kmh 29.92 in1013.2 mb - 0.00 in0.0 mm 0.00 in0.0 mm
02:52 AM 54.3°F12.4°C 52.3°F11.3°C 93% 3.4 mph E5.5 kmh E 4.6 mph7.4 kmh 29.93 in1013.5 mb - 0.00 in0.0 mm 0.00 in0.0 mm
02:58 AM 54.3°F12.4°C 52.3°F11.3°C 93% 2.3 mph E3.7 kmh E 2.3 mph3.7 kmh 29.93 in1013.5 mb - 0.00 in0.0 mm 0.00 in0.0 mm
03:03 AM 54.3°F12.4°C 52.3°F11.3°C 93% 3.4 mph ESE5.5 kmh ESE 3.4 mph5.5 kmh 29.93 in1013.5 mb - 0.00 in0.0 mm 0.00 in0.0 mm
03:09 AM 54.3°F12.4°C 52.3°F11.3°C 93% 3.4 mph ESE5.5 kmh ESE 4.6 mph7.4 kmh 29.93 in1013.5 mb - 0.00 in0.0 mm 0.00 in0.0 mm
03:15 AM 54.3°F12.4°C 52.4°F11.3°C 93% 2.3 mph E3.7 kmh E 4.6 mph7.4 kmh 29.92 in1013.2 mb - 0.00 in0.0 mm 0.00 in0.0 mm
03:20 AM 54.4°F12.4°C 52.4°F11.3°C 93% 3.4 mph E5.5 kmh E 5.8 mph9.3 kmh 29.92 in1013.2 mb - 0.00 in0.0 mm 0.00 in0.0 mm
03:26 AM 54.5°F12.5°C 52.5°F11.4°C 93% 3.4 mph E5.5 kmh E 3.4 mph5.5 kmh 29.93 in1013.5 mb - 0.00 in0.0 mm 0.00 in0.0 mm
03:31 AM 54.6°F12.6°C 52.6°F11.4°C 93% 2.3 mph ESE3.7 kmh ESE 3.4 mph5.5 kmh 29.93 in1013.5 mb - 0.00 in0.0 mm 0.00 in0.0 mm
03:37 AM 54.6°F12.6°C 52.6°F11.4°C 93% 1.1 mph ESE1.8 kmh ESE 5.8 mph9.3 kmh 29.93 in1013.5 mb - 0.00 in0.0 mm 0.00 in0.0 mm
03:43 AM 54.6°F12.6°C 52.6°F11.4°C 93% 2.3 mph E3.7 kmh E 3.4 mph5.5 kmh 29.93 in1013.5 mb - 0.00 in0.0 mm 0.00 in0.0 mm
03:48 AM 54.6°F12.6°C 52.6°F11.4°C 93% 3.4 mph ESE5.5 kmh ESE 4.6 mph7.4 kmh 29.93 in1013.5 mb - 0.00 in0.0 mm 0.00 in0.0 mm
03:54 AM 54.6°F12.6°C 52.6°F11.4°C 93% 2.3 mph ESE3.7 kmh ESE 3.4 mph5.5 kmh 29.93 in1013.5 mb - 0.00 in0.0 mm 0.00 in0.0 mm
04:00 AM 54.7°F12.6°C 52.4°F11.3°C 92% 2.3 mph SE3.7 kmh SE 2.3 mph3.7 kmh 29.93 in1013.5 mb - 0.00 in0.0 mm 0.00 in0.0 mm
04:05 AM 54.7°F12.6°C 52.4°F11.3°C 92% 3.4 mph ESE5.5 kmh ESE 4.6 mph7.4 kmh 29.93 in1013.5 mb - 0.00 in0.0 mm 0.00 in0.0 mm
04:11 AM 54.7°F12.6°C 52.4°F11.3°C 92% Calm Calm 1.1 mph1.8 kmh 29.93 in1013.5 mb - 0.00 in0.0 mm 0.00 in0.0 mm
04:16 AM 54.7°F12.6°C 52.4°F11.3°C 92% 1.1 mph ESE1.8 kmh ESE 3.4 mph5.5 kmh 29.93 in1013.5 mb - 0.00 in0.0 mm 0.00 in0.0 mm
04:22 AM 54.5°F12.5°C 52.5°F11.4°C 93% 2.3 mph ESE3.7 kmh ESE 5.8 mph9.3 kmh 29.93 in1013.5 mb - 0.01 in0.3 mm 0.01 in0.3 mm
04:28 AM 54.5°F12.5°C 52.5°F11.4°C 93% 2.3 mph ESE3.7 kmh ESE 4.6 mph7.4 kmh 29.93 in1013.5 mb - 0.01 in0.3 mm 0.01 in0.3 mm
04:33 AM 54.1°F12.3°C 52.1°F11.2°C 93% 2.3 mph SE3.7 kmh SE 5.8 mph9.3 kmh 29.93 in1013.5 mb - 0.01 in0.3 mm 0.01 in0.3 mm
04:39 AM 54.0°F12.2°C 52.0°F11.1°C 93% 4.6 mph SE7.4 kmh SE 10.3 mph16.6 kmh 29.93 in1013.5 mb - 0.01 in0.3 mm 0.01 in0.3 mm
04:45 AM 53.5°F11.9°C 51.2°F10.7°C 92% 4.6 mph SE7.4 kmh SE 5.8 mph9.3 kmh 29.94 in1013.9 mb - 0.01 in0.3 mm 0.01 in0.3 mm
04:50 AM 53.2°F11.8°C 50.9°F10.5°C 92% 4.6 mph E7.4 kmh E 11.5 mph18.5 kmh 29.94 in1013.9 mb - 0.01 in0.3 mm 0.01 in0.3 mm
04:56 AM 52.6°F11.4°C 50.3°F10.2°C 92% 2.3 mph ESE3.7 kmh ESE 5.8 mph9.3 kmh 29.94 in1013.9 mb - 0.02 in0.5 mm 0.02 in0.5 mm
05:01 AM 52.6°F11.4°C 50.3°F10.2°C 92% 2.3 mph E3.7 kmh E 3.4 mph5.5 kmh 29.94 in1013.9 mb - 0.02 in0.5 mm 0.02 in0.5 mm
05:07 AM 52.6°F11.4°C 50.4°F10.2°C 92% 4.6 mph E7.4 kmh E 11.5 mph18.5 kmh 29.94 in1013.9 mb - 0.02 in0.5 mm 0.02 in0.5 mm
05:13 AM 52.7°F11.5°C 50.1°F10.1°C 91% 4.6 mph E7.4 kmh E 6.9 mph11.1 kmh 29.94 in1013.9 mb - 0.02 in0.5 mm 0.02 in0.5 mm
05:18 AM 53.2°F11.8°C 50.6°F10.3°C 91% 4.6 mph SE7.4 kmh SE 6.9 mph11.1 kmh 29.94 in1013.9 mb - 0.02 in0.5 mm 0.02 in0.5 mm
05:24 AM 53.3°F11.8°C 50.7°F10.4°C 91% 4.6 mph SE7.4 kmh SE 8.0 mph12.9 kmh 29.94 in1013.9 mb - 0.02 in0.5 mm 0.02 in0.5 mm
05:30 AM 53.5°F11.9°C 51.2°F10.7°C 92% 3.4 mph ESE5.5 kmh ESE 3.4 mph5.5 kmh 29.94 in1013.9 mb - 0.02 in0.5 mm 0.02 in0.5 mm
05:35 AM 53.5°F11.9°C 51.2°F10.7°C 92% 3.4 mph E5.5 kmh E 4.6 mph7.4 kmh 29.94 in1013.9 mb - 0.02 in0.5 mm 0.02 in0.5 mm
05:41 AM 53.3°F11.8°C 50.7°F10.4°C 91% 5.8 mph ESE9.3 kmh ESE 8.0 mph12.9 kmh 29.94 in1013.9 mb - 0.02 in0.5 mm 0.02 in0.5 mm
05:46 AM 53.2°F11.8°C 50.6°F10.3°C 91% 3.4 mph ESE5.5 kmh ESE 6.9 mph11.1 kmh 29.94 in1013.9 mb - 0.02 in0.5 mm 0.02 in0.5 mm
05:52 AM 53.2°F11.8°C 50.6°F10.3°C 91% 3.4 mph E5.5 kmh E 6.9 mph11.1 kmh 29.94 in1013.9 mb - 0.03 in0.8 mm 0.03 in0.8 mm
05:58 AM 53.2°F11.8°C 50.6°F10.3°C 91% 3.4 mph ESE5.5 kmh ESE 4.6 mph7.4 kmh 29.94 in1013.9 mb - 0.03 in0.8 mm 0.03 in0.8 mm
06:03 AM 53.2°F11.8°C 50.9°F10.5°C 92% 3.4 mph ESE5.5 kmh ESE 4.6 mph7.4 kmh 29.94 in1013.9 mb - 0.04 in1.0 mm 0.04 in1.0 mm
06:09 AM 53.2°F11.8°C 50.9°F10.5°C 92% 3.4 mph ESE5.5 kmh ESE 11.5 mph18.5 kmh 29.94 in1013.9 mb - 0.04 in1.0 mm 0.04 in1.0 mm
06:15 AM 53.3°F11.8°C 51.0°F10.6°C 92% 2.3 mph ESE3.7 kmh ESE 6.9 mph11.1 kmh 29.94 in1013.9 mb - 0.05 in1.3 mm 0.05 in1.3 mm
06:20 AM 53.3°F11.8°C 51.0°F10.6°C 92% 3.4 mph E5.5 kmh E 5.8 mph9.3 kmh 29.94 in1013.9 mb - 0.06 in1.5 mm 0.06 in1.5 mm
06:26 AM 53.1°F11.7°C 50.8°F10.4°C 92% 5.8 mph SE9.3 kmh SE 8.0 mph12.9 kmh 29.94 in1013.9 mb - 0.06 in1.5 mm 0.06 in1.5 mm
06:31 AM 53.0°F11.7°C 51.0°F10.6°C 93% 5.8 mph E9.3 kmh E 10.3 mph16.6 kmh 29.94 in1013.9 mb - 0.08 in2.0 mm 0.08 in2.0 mm
06:37 AM 52.6°F11.4°C 50.6°F10.3°C 93% 5.8 mph E9.3 kmh E 5.8 mph9.3 kmh 29.93 in1013.5 mb - 0.09 in2.3 mm 0.09 in2.3 mm
06:43 AM 52.6°F11.4°C 50.6°F10.3°C 93% 4.6 mph E7.4 kmh E 6.9 mph11.1 kmh 29.94 in1013.9 mb - 0.09 in2.3 mm 0.09 in2.3 mm
06:48 AM 52.4°F11.3°C 50.4°F10.2°C 93% 4.6 mph E7.4 kmh E 8.0 mph12.9 kmh 29.94 in1013.9 mb - 0.13 in3.3 mm 0.13 in3.3 mm
06:54 AM 52.3°F11.3°C 50.3°F10.2°C 93% 6.9 mph E11.1 kmh E 13.8 mph22.2 kmh 29.94 in1013.9 mb - 0.13 in3.3 mm 0.13 in3.3 mm
07:00 AM 52.2°F11.2°C 50.2°F10.1°C 93% 5.8 mph E9.3 kmh E 11.5 mph18.5 kmh 29.94 in1013.9 mb - 0.14 in3.6 mm 0.14 in3.6 mm
07:05 AM 52.3°F11.3°C 50.3°F10.2°C 93% 4.6 mph E7.4 kmh E 8.0 mph12.9 kmh 29.94 in1013.9 mb - 0.15 in3.8 mm 0.15 in3.8 mm
07:11 AM 52.2°F11.2°C 50.5°F10.3°C 94% 5.8 mph SE9.3 kmh SE 9.2 mph14.8 kmh 29.95 in1014.2 mb - 0.17 in4.3 mm 0.17 in4.3 mm
07:16 AM 52.2°F11.2°C 50.5°F10.3°C 94% 5.8 mph ESE9.3 kmh ESE 8.0 mph12.9 kmh 29.95 in1014.2 mb - 0.17 in4.3 mm 0.17 in4.3 mm
07:22 AM 51.8°F11.0°C 50.1°F10.1°C 94% 6.9 mph ESE11.1 kmh ESE 8.0 mph12.9 kmh 29.95 in1014.2 mb - 0.19 in4.8 mm 0.19 in4.8 mm
07:28 AM 51.7°F10.9°C 50.1°F10.1°C 94% 5.8 mph ESE9.3 kmh ESE 8.0 mph12.9 kmh 29.95 in1014.2 mb - 0.19 in4.8 mm 0.19 in4.8 mm
07:33 AM 51.7°F10.9°C 50.0°F10.0°C 94% 4.6 mph ESE7.4 kmh ESE 6.9 mph11.1 kmh 29.95 in1014.2 mb - 0.20 in5.1 mm 0.20 in5.1 mm
07:39 AM 51.7°F10.9°C 50.0°F10.0°C 94% 5.8 mph SE9.3 kmh SE 8.0 mph12.9 kmh 29.95 in1014.2 mb - 0.20 in5.1 mm 0.20 in5.1 mm
07:45 AM 51.7°F10.9°C 50.0°F10.0°C 94% 3.4 mph ESE5.5 kmh ESE 3.4 mph5.5 kmh 29.95 in1014.2 mb - 0.20 in5.1 mm 0.20 in5.1 mm
07:50 AM 51.8°F11.0°C 50.4°F10.2°C 95% 5.8 mph ESE9.3 kmh ESE 9.2 mph14.8 kmh 29.95 in1014.2 mb - 0.20 in5.1 mm 0.20 in5.1 mm
07:56 AM 52.0°F11.1°C 50.6°F10.3°C 95% 4.6 mph ESE7.4 kmh ESE 8.0 mph12.9 kmh 29.95 in1014.2 mb - 0.20 in5.1 mm 0.21 in5.3 mm
08:01 AM 52.0°F11.1°C 50.6°F10.3°C 95% 6.9 mph ESE11.1 kmh ESE 11.5 mph18.5 kmh 29.95 in1014.2 mb - 0.20 in5.1 mm 0.21 in5.3 mm
08:07 AM 52.2°F11.2°C 50.8°F10.4°C 95% 6.9 mph ESE11.1 kmh ESE 11.5 mph18.5 kmh 29.95 in1014.2 mb - 0.20 in5.1 mm 0.21 in5.3 mm
08:13 AM 52.2°F11.2°C 50.8°F10.4°C 95% 5.8 mph ESE9.3 kmh ESE 6.9 mph11.1 kmh 29.95 in1014.2 mb - 0.20 in5.1 mm 0.21 in5.3 mm
08:18 AM 52.3°F11.3°C 50.9°F10.5°C 95% 5.8 mph SE9.3 kmh SE 8.0 mph12.9 kmh 29.95 in1014.2 mb - 0.20 in5.1 mm 0.21 in5.3 mm
08:24 AM 52.5°F11.4°C 51.1°F10.6°C 95% 5.8 mph SE9.3 kmh SE 11.5 mph18.5 kmh 29.95 in1014.2 mb - 0.20 in5.1 mm 0.21 in5.3 mm
08:30 AM 52.4°F11.3°C 51.0°F10.6°C 95% 4.6 mph ESE7.4 kmh ESE 6.9 mph11.1 kmh 29.96 in1014.6 mb - 0.20 in5.1 mm 0.21 in5.3 mm
08:35 AM 52.5°F11.4°C 51.1°F10.6°C 95% 6.9 mph ESE11.1 kmh ESE 6.9 mph11.1 kmh 29.96 in1014.6 mb - 0.20 in5.1 mm 0.21 in5.3 mm
08:41 AM 52.6°F11.4°C 51.2°F10.7°C 95% 5.8 mph ESE9.3 kmh ESE 6.9 mph11.1 kmh 29.96 in1014.6 mb - 0.20 in5.1 mm 0.21 in5.3 mm
08:46 AM 52.6°F11.4°C 51.2°F10.7°C 95% 4.6 mph ESE7.4 kmh ESE 10.3 mph16.6 kmh 29.96 in1014.6 mb - 0.20 in5.1 mm 0.21 in5.3 mm
08:52 AM 52.6°F11.4°C 50.9°F10.5°C 94% 6.9 mph E11.1 kmh E 10.3 mph16.6 kmh 29.96 in1014.6 mb - 0.20 in5.1 mm 0.21 in5.3 mm
08:58 AM 52.6°F11.4°C 50.9°F10.5°C 94% 4.6 mph ESE7.4 kmh ESE 5.8 mph9.3 kmh 29.96 in1014.6 mb - 0.20 in5.1 mm 0.21 in5.3 mm
09:03 AM 52.6°F11.4°C 51.0°F10.6°C 94% 4.6 mph SE7.4 kmh SE 11.5 mph18.5 kmh 29.97 in1014.9 mb - 0.20 in5.1 mm 0.21 in5.3 mm
09:09 AM 52.7°F11.5°C 51.0°F10.6°C 94% 5.8 mph ESE9.3 kmh ESE 9.2 mph14.8 kmh 29.97 in1014.9 mb - 0.20 in5.1 mm 0.21 in5.3 mm
09:15 AM 52.7°F11.5°C 51.0°F10.6°C 94% 6.9 mph E11.1 kmh E 11.5 mph18.5 kmh 29.97 in1014.9 mb - 0.20 in5.1 mm 0.21 in5.3 mm
09:20 AM 52.7°F11.5°C 51.0°F10.6°C 94% 5.8 mph ESE9.3 kmh ESE 6.9 mph11.1 kmh 29.97 in1014.9 mb - 0.20 in5.1 mm 0.21 in5.3 mm
09:26 AM 52.7°F11.5°C 51.0°F10.6°C 94% 5.8 mph E9.3 kmh E 11.5 mph18.5 kmh 29.97 in1014.9 mb - 0.20 in5.1 mm 0.21 in5.3 mm
09:31 AM 52.8°F11.6°C 51.1°F10.6°C 94% 4.6 mph ESE7.4 kmh ESE 4.6 mph7.4 kmh 29.97 in1014.9 mb - 0.20 in5.1 mm 0.21 in5.3 mm
09:37 AM 52.7°F11.5°C 51.0°F10.6°C 94% 5.8 mph ESE9.3 kmh ESE 8.0 mph12.9 kmh 29.97 in1014.9 mb - 0.20 in5.1 mm 0.21 in5.3 mm
09:43 AM 52.8°F11.6°C 51.1°F10.6°C 94% 6.9 mph E11.1 kmh E 9.2 mph14.8 kmh 29.97 in1014.9 mb - 0.20 in5.1 mm 0.21 in5.3 mm
09:48 AM 53.0°F11.7°C 51.7°F10.9°C 95% 6.9 mph ESE11.1 kmh ESE 13.8 mph22.2 kmh 29.97 in1014.9 mb - 0.20 in5.1 mm 0.21 in5.3 mm
09:54 AM 53.3°F11.8°C 51.9°F11.1°C 95% 4.6 mph ESE7.4 kmh ESE 4.6 mph7.4 kmh 29.97 in1014.9 mb - 0.20 in5.1 mm 0.21 in5.3 mm
10:00 AM 53.4°F11.9°C 52.0°F11.1°C 95% 4.6 mph E7.4 kmh E 8.0 mph12.9 kmh 29.97 in1014.9 mb - 0.20 in5.1 mm 0.21 in5.3 mm
10:05 AM 53.6°F12.0°C 52.2°F11.2°C 95% 3.4 mph SE5.5 kmh SE 6.9 mph11.1 kmh 29.97 in1014.9 mb - 0.20 in5.1 mm 0.21 in5.3 mm
10:11 AM 53.7°F12.1°C 52.3°F11.3°C 95% 4.6 mph E7.4 kmh E 6.9 mph11.1 kmh 29.97 in1014.9 mb - 0.20 in5.1 mm 0.21 in5.3 mm
10:16 AM 53.6°F12.0°C 52.2°F11.2°C 95% 3.4 mph E5.5 kmh E 4.6 mph7.4 kmh 29.97 in1014.9 mb - 0.20 in5.1 mm 0.21 in5.3 mm
10:22 AM 53.6°F12.0°C 52.2°F11.2°C 95% 3.4 mph ESE5.5 kmh ESE 8.0 mph12.9 kmh 29.97 in1014.9 mb - 0.20 in5.1 mm 0.21 in5.3 mm
10:28 AM 53.6°F12.0°C 52.2°F11.2°C 95% 3.4 mph SE5.5 kmh SE 5.8 mph9.3 kmh 29.96 in1014.6 mb - 0.20 in5.1 mm 0.21 in5.3 mm
10:33 AM 53.5°F11.9°C 52.1°F11.2°C 95% 5.8 mph SE9.3 kmh SE 9.2 mph14.8 kmh 29.97 in1014.9 mb - 0.21 in5.3 mm 0.21 in5.3 mm
10:39 AM 53.5°F11.9°C 52.1°F11.2°C 95% 4.6 mph E7.4 kmh E 5.8 mph9.3 kmh 29.97 in1014.9 mb - 0.21 in5.3 mm 0.21 in5.3 mm
10:45 AM 53.3°F11.8°C 51.9°F11.1°C 95% 5.8 mph ESE9.3 kmh ESE 4.6 mph7.4 kmh 29.97 in1014.9 mb - 0.27 in6.9 mm 0.27 in6.9 mm
10:50 AM 53.2°F11.8°C 51.8°F11.0°C 95% 5.8 mph SE9.3 kmh SE 8.0 mph12.9 kmh 29.97 in1014.9 mb - 0.27 in6.9 mm 0.27 in6.9 mm
10:56 AM 53.1°F11.7°C 51.7°F10.9°C 95% 3.4 mph ESE5.5 kmh ESE 4.6 mph7.4 kmh 29.96 in1014.6 mb - 0.29 in7.4 mm 0.29 in7.4 mm
11:01 AM 53.1°F11.7°C 51.7°F10.9°C 95% 2.3 mph E3.7 kmh E 4.6 mph7.4 kmh 29.96 in1014.6 mb - 0.29 in7.4 mm 0.29 in7.4 mm
11:07 AM 53.3°F11.8°C 52.2°F11.2°C 96% 1.1 mph SE1.8 kmh SE 3.4 mph5.5 kmh 29.97 in1014.9 mb - 0.30 in7.6 mm 0.30 in7.6 mm
11:13 AM 53.3°F11.8°C 52.2°F11.2°C 96% 2.3 mph ESE3.7 kmh ESE 4.6 mph7.4 kmh 29.97 in1014.9 mb - 0.30 in7.6 mm 0.30 in7.6 mm
11:18 AM 53.6°F12.0°C 52.5°F11.4°C 96% 2.3 mph E3.7 kmh E 3.4 mph5.5 kmh 29.97 in1014.9 mb - 0.30 in7.6 mm 0.30 in7.6 mm
11:24 AM 53.7°F12.1°C 52.6°F11.4°C 96% 2.3 mph ESE3.7 kmh ESE 3.4 mph5.5 kmh 29.97 in1014.9 mb - 0.30 in7.6 mm 0.30 in7.6 mm
11:30 AM 54.0°F12.2°C 52.9°F11.6°C 96% 3.4 mph ESE5.5 kmh ESE 3.4 mph5.5 kmh 29.97 in1014.9 mb - 0.30 in7.6 mm 0.30 in7.6 mm
11:35 AM 54.0°F12.2°C 52.9°F11.6°C 96% 2.3 mph ESE3.7 kmh ESE 3.4 mph5.5 kmh 29.97 in1014.9 mb - 0.30 in7.6 mm 0.30 in7.6 mm
11:41 AM 54.1°F12.3°C 53.0°F11.7°C 96% 1.1 mph SSE1.8 kmh SSE 1.1 mph1.8 kmh 29.97 in1014.9 mb - 0.30 in7.6 mm 0.30 in7.6 mm
11:46 AM 54.2°F12.3°C 53.1°F11.7°C 96% 1.1 mph ESE1.8 kmh ESE 1.1 mph1.8 kmh 29.97 in1014.9 mb - 0.30 in7.6 mm 0.30 in7.6 mm
11:52 AM 54.2°F12.3°C 53.1°F11.7°C 96% 1.1 mph ESE1.8 kmh ESE 5.8 mph9.3 kmh 29.97 in1014.9 mb - 0.30 in7.6 mm 0.30 in7.6 mm
11:58 AM 54.0°F12.2°C 52.9°F11.6°C 96% 1.1 mph ESE1.8 kmh ESE 1.1 mph1.8 kmh 29.97 in1014.9 mb - 0.30 in7.6 mm 0.30 in7.6 mm
12:03 PM 54.1°F12.3°C 53.0°F11.7°C 96% 1.1 mph ESE1.8 kmh ESE 3.4 mph5.5 kmh 29.97 in1014.9 mb - 0.30 in7.6 mm 0.30 in7.6 mm
12:09 PM 54.2°F12.3°C 53.1°F11.7°C 96% Calm Calm -- 29.97 in1014.9 mb - 0.30 in7.6 mm 0.30 in7.6 mm
12:15 PM 54.3°F12.4°C 53.2°F11.8°C 96% Calm Calm 1.1 mph1.8 kmh 29.98 in1015.2 mb - 0.30 in7.6 mm 0.30 in7.6 mm
12:20 PM 54.3°F12.4°C 53.2°F11.8°C 96% 1.1 mph SE1.8 kmh SE 2.3 mph3.7 kmh 29.98 in1015.2 mb - 0.30 in7.6 mm 0.30 in7.6 mm
12:26 PM 54.3°F12.4°C 53.2°F11.8°C 96% 1.1 mph SE1.8 kmh SE 3.4 mph5.5 kmh 29.98 in1015.2 mb - 0.30 in7.6 mm 0.30 in7.6 mm
12:31 PM 54.2°F12.3°C 53.1°F11.7°C 96% 1.1 mph SE1.8 kmh SE 3.4 mph5.5 kmh 29.98 in1015.2 mb - 0.30 in7.6 mm 0.30 in7.6 mm
12:37 PM 54.2°F12.3°C 53.1°F11.7°C 96% 3.4 mph SE5.5 kmh SE 4.6 mph7.4 kmh 29.98 in1015.2 mb - 0.30 in7.6 mm 0.30 in7.6 mm
12:43 PM 54.2°F12.3°C 53.1°F11.7°C 96% 1.1 mph SE1.8 kmh SE 5.8 mph9.3 kmh 29.98 in1015.2 mb - 0.30 in7.6 mm 0.30 in7.6 mm
12:48 PM 54.3°F12.4°C 53.2°F11.8°C 96% 3.4 mph SSE5.5 kmh SSE 5.8 mph9.3 kmh 29.98 in1015.2 mb - 0.30 in7.6 mm 0.30 in7.6 mm
12:54 PM 54.4°F12.4°C 53.3°F11.8°C 96% Calm Calm -- 29.97 in1014.9 mb - 0.30 in7.6 mm 0.30 in7.6 mm
01:00 PM 54.5°F12.5°C 53.4°F11.9°C 96% 3.4 mph ESE5.5 kmh ESE 5.8 mph9.3 kmh 29.97 in1014.9 mb - 0.30 in7.6 mm 0.30 in7.6 mm
01:05 PM 54.6°F12.6°C 53.5°F11.9°C 96% 1.1 mph ESE1.8 kmh ESE 1.1 mph1.8 kmh 29.98 in1015.2 mb - 0.30 in7.6 mm 0.30 in7.6 mm
01:11 PM 54.7°F12.6°C 53.6°F12.0°C 96% 2.3 mph ESE3.7 kmh ESE 3.4 mph5.5 kmh 29.98 in1015.2 mb - 0.30 in7.6 mm 0.30 in7.6 mm
01:16 PM 54.7°F12.6°C 53.6°F12.0°C 96% 1.1 mph ESE1.8 kmh ESE 2.3 mph3.7 kmh 29.98 in1015.2 mb - 0.30 in7.6 mm 0.30 in7.6 mm
01:22 PM 54.8°F12.7°C 53.7°F12.1°C 96% 1.1 mph E1.8 kmh E 1.1 mph1.8 kmh 29.98 in1015.2 mb - 0.30 in7.6 mm 0.30 in7.6 mm
01:28 PM 54.9°F12.7°C 53.7°F12.1°C 96% Calm Calm 1.1 mph1.8 kmh 29.98 in1015.2 mb - 0.30 in7.6 mm 0.30 in7.6 mm
01:33 PM 55.0°F12.8°C 53.9°F12.2°C 96% Calm Calm -- 29.98 in1015.2 mb - 0.30 in7.6 mm 0.30 in7.6 mm
01:39 PM 55.0°F12.8°C 53.9°F12.2°C 96% Calm Calm -- 29.98 in1015.2 mb - 0.30 in7.6 mm 0.30 in7.6 mm
01:45 PM 55.2°F12.9°C 54.0°F12.2°C 96% Calm Calm -- 29.98 in1015.2 mb - 0.30 in7.6 mm 0.30 in7.6 mm
01:50 PM 55.1°F12.8°C 54.0°F12.2°C 96% Calm Calm 1.1 mph1.8 kmh 29.98 in1015.2 mb - 0.30 in7.6 mm 0.30 in7.6 mm
01:56 PM 55.1°F12.8°C 54.0°F12.2°C 96% Calm Calm 1.1 mph1.8 kmh 29.98 in1015.2 mb - 0.30 in7.6 mm 0.30 in7.6 mm
02:01 PM 55.2°F12.9°C 54.1°F12.3°C 96% Calm Calm 2.3 mph3.7 kmh 29.98 in1015.2 mb - 0.30 in7.6 mm 0.30 in7.6 mm
02:07 PM 55.1°F12.8°C 54.0°F12.2°C 96% Calm Calm 1.1 mph1.8 kmh 29.99 in1015.6 mb - 0.30 in7.6 mm 0.30 in7.6 mm
02:13 PM 55.1°F12.8°C 54.0°F12.2°C 96% 1.1 mph WSW1.8 kmh WSW 3.4 mph5.5 kmh 29.99 in1015.6 mb - 0.30 in7.6 mm 0.30 in7.6 mm
02:18 PM 55.1°F12.8°C 54.0°F12.2°C 96% Calm Calm -- 29.99 in1015.6 mb - 0.30 in7.6 mm 0.30 in7.6 mm
02:24 PM 55.1°F12.8°C 54.0°F12.2°C 96% Calm Calm -- 29.99 in1015.6 mb - 0.30 in7.6 mm 0.30 in7.6 mm
02:30 PM 55.2°F12.9°C 54.1°F12.3°C 96% Calm Calm -- 29.99 in1015.6 mb - 0.30 in7.6 mm 0.30 in7.6 mm
02:35 PM 55.2°F12.9°C 54.1°F12.3°C 96% Calm Calm -- 30.00 in1015.9 mb - 0.30 in7.6 mm 0.30 in7.6 mm
02:41 PM 55.3°F12.9°C 54.2°F12.3°C 96% Calm Calm -- 29.99 in1015.6 mb - 0.30 in7.6 mm 0.30 in7.6 mm
02:46 PM 55.3°F12.9°C 54.2°F12.3°C 96% 1.1 mph WSW1.8 kmh WSW 3.4 mph5.5 kmh 29.99 in1015.6 mb - 0.30 in7.6 mm 0.30 in7.6 mm
02:52 PM 55.5°F13.1°C 54.3°F12.4°C 96% Calm Calm 1.1 mph1.8 kmh 30.00 in1015.9 mb - 0.30 in7.6 mm 0.30 in7.6 mm
02:58 PM 55.5°F13.1°C 54.4°F12.4°C 96% 2.3 mph WNW3.7 kmh WNW 3.4 mph5.5 kmh 30.00 in1015.9 mb - 0.30 in7.6 mm 0.30 in7.6 mm
03:03 PM 55.5°F13.1°C 54.1°F12.3°C 95% 1.1 mph W1.8 kmh W 3.4 mph5.5 kmh 30.00 in1015.9 mb - 0.30 in7.6 mm 0.30 in7.6 mm
03:09 PM 55.5°F13.1°C 54.4°F12.4°C 96% 1.1 mph W1.8 kmh W 2.3 mph3.7 kmh 29.99 in1015.6 mb - 0.30 in7.6 mm 0.30 in7.6 mm
03:15 PM 55.4°F13.0°C 54.0°F12.2°C 95% 1.1 mph W1.8 kmh W 3.4 mph5.5 kmh 30.00 in1015.9 mb - 0.30 in7.6 mm 0.30 in7.6 mm
03:20 PM 55.4°F13.0°C 54.0°F12.2°C 95% Calm Calm 1.1 mph1.8 kmh 29.99 in1015.6 mb - 0.30 in7.6 mm 0.30 in7.6 mm
03:26 PM 55.3°F12.9°C 53.9°F12.2°C 95% 1.1 mph WNW1.8 kmh WNW 3.4 mph5.5 kmh 30.00 in1015.9 mb - 0.30 in7.6 mm 0.30 in7.6 mm
03:31 PM 55.3°F12.9°C 53.9°F12.2°C 95% 1.1 mph W1.8 kmh W 3.4 mph5.5 kmh 30.00 in1015.9 mb - 0.30 in7.6 mm 0.30 in7.6 mm
03:37 PM 55.2°F12.9°C 53.8°F12.1°C 95% 2.3 mph WNW3.7 kmh WNW 3.4 mph5.5 kmh 30.00 in1015.9 mb - 0.30 in7.6 mm 0.30 in7.6 mm
03:43 PM 55.2°F12.9°C 53.7°F12.1°C 95% Calm Calm -- 30.00 in1015.9 mb - 0.30 in7.6 mm 0.30 in7.6 mm
03:48 PM 55.2°F12.9°C 53.8°F12.1°C 95% 1.1 mph W1.8 kmh W 1.1 mph1.8 kmh 30.00 in1015.9 mb - 0.30 in7.6 mm 0.30 in7.6 mm
03:54 PM 55.2°F12.9°C 53.8°F12.1°C 95% Calm Calm -- 30.00 in1015.9 mb - 0.30 in7.6 mm 0.30 in7.6 mm
04:00 PM 55.2°F12.9°C 53.8°F12.1°C 95% Calm Calm -- 30.00 in1015.9 mb - 0.30 in7.6 mm 0.30 in7.6 mm
04:05 PM 55.2°F12.9°C 53.8°F12.1°C 95% Calm Calm -- 30.01 in1016.3 mb - 0.30 in7.6 mm 0.30 in7.6 mm
04:11 PM 55.2°F12.9°C 53.8°F12.1°C 95% Calm Calm -- 30.01 in1016.3 mb - 0.30 in7.6 mm 0.30 in7.6 mm
04:16 PM 55.2°F12.9°C 53.8°F12.1°C 95% Calm Calm -- 30.01 in1016.3 mb - 0.30 in7.6 mm 0.30 in7.6 mm
04:22 PM 55.2°F12.9°C 53.8°F12.1°C 95% Calm Calm -- 30.01 in1016.3 mb - 0.30 in7.6 mm 0.30 in7.6 mm
04:28 PM 55.2°F12.9°C 53.8°F12.1°C 95% 1.1 mph NNW1.8 kmh NNW 3.4 mph5.5 kmh 30.01 in1016.3 mb - 0.30 in7.6 mm 0.30 in7.6 mm
04:33 PM 55.1°F12.8°C 53.7°F12.1°C 95% Calm Calm 2.3 mph3.7 kmh 30.01 in1016.3 mb - 0.30 in7.6 mm 0.30 in7.6 mm
04:39 PM 55.2°F12.9°C 53.8°F12.1°C 95% Calm Calm -- 30.01 in1016.3 mb - 0.30 in7.6 mm 0.30 in7.6 mm
04:45 PM 55.1°F12.8°C 53.7°F12.1°C 95% Calm Calm -- 30.01 in1016.3 mb - 0.30 in7.6 mm 0.30 in7.6 mm
04:50 PM 55.0°F12.8°C 53.6°F12.0°C 95% Calm Calm 1.1 mph1.8 kmh 30.01 in1016.3 mb - 0.30 in7.6 mm 0.30 in7.6 mm
04:56 PM 54.8°F12.7°C 53.4°F11.9°C 95% 1.1 mph WNW1.8 kmh WNW 1.1 mph1.8 kmh 30.02 in1016.6 mb - 0.30 in7.6 mm 0.30 in7.6 mm
05:01 PM 54.8°F12.7°C 53.4°F11.9°C 95% Calm Calm 1.1 mph1.8 kmh 30.02 in1016.6 mb - 0.30 in7.6 mm 0.30 in7.6 mm
05:07 PM 54.6°F12.6°C 53.2°F11.8°C 95% 1.1 mph WNW1.8 kmh WNW 2.3 mph3.7 kmh 30.02 in1016.6 mb - 0.30 in7.6 mm 0.30 in7.6 mm
05:13 PM 54.6°F12.6°C 53.2°F11.8°C 95% Calm Calm -- 30.02 in1016.6 mb - 0.30 in7.6 mm 0.30 in7.6 mm
05:18 PM 54.5°F12.5°C 53.1°F11.7°C 95% Calm Calm -- 30.02 in1016.6 mb - 0.30 in7.6 mm 0.30 in7.6 mm
05:24 PM 54.5°F12.5°C 53.1°F11.7°C 95% Calm Calm -- 30.02 in1016.6 mb - 0.30 in7.6 mm 0.30 in7.6 mm
05:30 PM 54.5°F12.5°C 53.1°F11.7°C 95% Calm Calm -- 30.02 in1016.6 mb - 0.30 in7.6 mm 0.30 in7.6 mm
05:35 PM 54.5°F12.5°C 53.1°F11.7°C 95% Calm Calm -- 30.03 in1016.9 mb - 0.30 in7.6 mm 0.30 in7.6 mm
05:41 PM 54.6°F12.6°C 53.2°F11.8°C 95% Calm Calm -- 30.03 in1016.9 mb - 0.30 in7.6 mm 0.30 in7.6 mm
05:46 PM 54.6°F12.6°C 53.2°F11.8°C 95% Calm Calm -- 30.03 in1016.9 mb - 0.30 in7.6 mm 0.30 in7.6 mm
05:52 PM 54.7°F12.6°C 53.3°F11.8°C 95% Calm Calm 2.3 mph3.7 kmh 30.03 in1016.9 mb - 0.30 in7.6 mm 0.30 in7.6 mm
05:58 PM 54.7°F12.6°C 53.3°F11.8°C 95% Calm Calm -- 30.03 in1016.9 mb - 0.30 in7.6 mm 0.30 in7.6 mm
06:03 PM 54.7°F12.6°C 53.3°F11.8°C 95% 1.1 mph SW1.8 kmh SW 3.4 mph5.5 kmh 30.03 in1016.9 mb - 0.30 in7.6 mm 0.30 in7.6 mm
06:09 PM 54.7°F12.6°C 53.3°F11.8°C 95% 2.3 mph SW3.7 kmh SW 3.4 mph5.5 kmh 30.04 in1017.3 mb - 0.30 in7.6 mm 0.30 in7.6 mm
06:15 PM 54.7°F12.6°C 53.3°F11.8°C 95% 1.1 mph WSW1.8 kmh WSW 1.1 mph1.8 kmh 30.04 in1017.3 mb - 0.30 in7.6 mm 0.30 in7.6 mm
06:20 PM 54.7°F12.6°C 53.3°F11.8°C 95% Calm Calm 2.3 mph3.7 kmh 30.04 in1017.3 mb - 0.30 in7.6 mm 0.30 in7.6 mm
06:26 PM 54.7°F12.6°C 53.3°F11.8°C 95% Calm Calm 1.1 mph1.8 kmh 30.05 in1017.6 mb - 0.30 in7.6 mm 0.30 in7.6 mm
06:31 PM 54.7°F12.6°C 53.3°F11.8°C 95% Calm Calm -- 30.05 in1017.6 mb - 0.30 in7.6 mm 0.30 in7.6 mm
06:37 PM 54.7°F12.6°C 53.3°F11.8°C 95% 2.3 mph WSW3.7 kmh WSW 3.4 mph5.5 kmh 30.05 in1017.6 mb - 0.30 in7.6 mm 0.30 in7.6 mm
06:43 PM 54.7°F12.6°C 53.3°F11.8°C 95% 1.1 mph WSW1.8 kmh WSW 3.4 mph5.5 kmh 30.05 in1017.6 mb - 0.30 in7.6 mm 0.30 in7.6 mm
06:48 PM 54.7°F12.6°C 53.3°F11.8°C 95% 2.3 mph WSW3.7 kmh WSW 3.4 mph5.5 kmh 30.05 in1017.6 mb - 0.30 in7.6 mm 0.30 in7.6 mm
06:54 PM 54.5°F12.5°C 53.1°F11.7°C 95% 2.3 mph WSW3.7 kmh WSW 3.4 mph5.5 kmh 30.05 in1017.6 mb - 0.30 in7.6 mm 0.30 in7.6 mm
07:00 PM 54.4°F12.4°C 53.0°F11.7°C 95% 1.1 mph SW1.8 kmh SW 2.3 mph3.7 kmh 30.05 in1017.6 mb - 0.30 in7.6 mm 0.30 in7.6 mm
07:05 PM 54.3°F12.4°C 52.9°F11.6°C 95% 2.3 mph W3.7 kmh W 3.4 mph5.5 kmh 30.05 in1017.6 mb - 0.30 in7.6 mm 0.30 in7.6 mm
07:11 PM 54.3°F12.4°C 52.9°F11.6°C 95% 1.1 mph W1.8 kmh W 3.4 mph5.5 kmh 30.05 in1017.6 mb - 0.30 in7.6 mm 0.30 in7.6 mm
07:16 PM 54.2°F12.3°C 52.8°F11.6°C 95% 3.4 mph WSW5.5 kmh WSW 4.6 mph7.4 kmh 30.05 in1017.6 mb - 0.30 in7.6 mm 0.30 in7.6 mm
07:22 PM 54.1°F12.3°C 52.7°F11.5°C 95% 2.3 mph WSW3.7 kmh WSW 3.4 mph5.5 kmh 30.05 in1017.6 mb - 0.30 in7.6 mm 0.30 in7.6 mm
07:28 PM 54.0°F12.2°C 52.6°F11.4°C 95% 2.3 mph WSW3.7 kmh WSW 4.6 mph7.4 kmh 30.05 in1017.6 mb - 0.30 in7.6 mm 0.30 in7.6 mm
07:33 PM 54.0°F12.2°C 52.6°F11.4°C 95% 4.6 mph W7.4 kmh W 8.0 mph12.9 kmh 30.05 in1017.6 mb - 0.30 in7.6 mm 0.30 in7.6 mm
07:39 PM 54.0°F12.2°C 52.6°F11.4°C 95% 2.3 mph WSW3.7 kmh WSW 3.4 mph5.5 kmh 30.06 in1017.9 mb - 0.30 in7.6 mm 0.30 in7.6 mm
07:45 PM 53.9°F12.2°C 52.5°F11.4°C 95% 2.3 mph WSW3.7 kmh WSW 3.4 mph5.5 kmh 30.06 in1017.9 mb - 0.30 in7.6 mm 0.30 in7.6 mm
07:50 PM 53.9°F12.2°C 52.5°F11.4°C 95% 2.3 mph WSW3.7 kmh WSW 3.4 mph5.5 kmh 30.06 in1017.9 mb - 0.30 in7.6 mm 0.30 in7.6 mm
07:56 PM 53.9°F12.2°C 52.5°F11.4°C 95% 2.3 mph W3.7 kmh W 4.6 mph7.4 kmh 30.06 in1017.9 mb - 0.30 in7.6 mm 0.30 in7.6 mm
08:01 PM 53.8°F12.1°C 52.4°F11.3°C 95% 3.4 mph WSW5.5 kmh WSW 5.8 mph9.3 kmh 30.07 in1018.3 mb - 0.30 in7.6 mm 0.30 in7.6 mm
08:07 PM 53.8°F12.1°C 52.4°F11.3°C 95% 2.3 mph W3.7 kmh W 3.4 mph5.5 kmh 30.07 in1018.3 mb - 0.30 in7.6 mm 0.30 in7.6 mm
08:13 PM 53.8°F12.1°C 52.4°F11.3°C 95% 3.4 mph WSW5.5 kmh WSW 4.6 mph7.4 kmh 30.06 in1017.9 mb - 0.30 in7.6 mm 0.30 in7.6 mm
08:18 PM 53.8°F12.1°C 52.4°F11.3°C 95% 3.4 mph WNW5.5 kmh WNW 3.4 mph5.5 kmh 30.06 in1017.9 mb - 0.30 in7.6 mm 0.30 in7.6 mm
08:24 PM 53.8°F12.1°C 52.4°F11.3°C 95% 3.4 mph WSW5.5 kmh WSW 3.4 mph5.5 kmh 30.06 in1017.9 mb - 0.30 in7.6 mm 0.30 in7.6 mm
08:30 PM 53.8°F12.1°C 52.1°F11.2°C 94% 1.1 mph W1.8 kmh W 2.3 mph3.7 kmh 30.07 in1018.3 mb - 0.30 in7.6 mm 0.30 in7.6 mm
08:35 PM 53.7°F12.1°C 52.0°F11.1°C 94% 1.1 mph WSW1.8 kmh WSW 3.4 mph5.5 kmh 30.07 in1018.3 mb - 0.30 in7.6 mm 0.30 in7.6 mm
08:41 PM 53.7°F12.1°C 52.3°F11.3°C 95% 2.3 mph WSW3.7 kmh WSW 3.4 mph5.5 kmh 30.07 in1018.3 mb - 0.30 in7.6 mm 0.30 in7.6 mm
08:46 PM 53.7°F12.1°C 52.3°F11.3°C 95% Calm Calm 2.3 mph3.7 kmh 30.07 in1018.3 mb - 0.30 in7.6 mm 0.30 in7.6 mm
08:52 PM 53.7°F12.1°C 52.3°F11.3°C 95% Calm Calm 1.1 mph1.8 kmh 30.07 in1018.3 mb - 0.30 in7.6 mm 0.30 in7.6 mm
08:58 PM 53.7°F12.1°C 52.3°F11.3°C 95% Calm Calm -- 30.07 in1018.3 mb - 0.30 in7.6 mm 0.30 in7.6 mm
09:03 PM 53.8°F12.1°C 52.4°F11.3°C 95% 2.3 mph WSW3.7 kmh WSW 3.4 mph5.5 kmh 30.07 in1018.3 mb - 0.30 in7.6 mm 0.30 in7.6 mm
09:09 PM 53.8°F12.1°C 52.4°F11.3°C 95% Calm Calm 1.1 mph1.8 kmh 30.08 in1018.6 mb - 0.30 in7.6 mm 0.30 in7.6 mm
09:15 PM 53.8°F12.1°C 52.4°F11.3°C 95% 3.4 mph WSW5.5 kmh WSW 6.9 mph11.1 kmh 30.08 in1018.6 mb - 0.30 in7.6 mm 0.30 in7.6 mm
09:20 PM 53.7°F12.1°C 52.3°F11.3°C 95% 3.4 mph WSW5.5 kmh WSW 4.6 mph7.4 kmh 30.07 in1018.3 mb - 0.30 in7.6 mm 0.30 in7.6 mm
09:26 PM 53.7°F12.1°C 52.3°F11.3°C 95% 1.1 mph W1.8 kmh W 2.3 mph3.7 kmh 30.07 in1018.3 mb - 0.30 in7.6 mm 0.30 in7.6 mm
09:31 PM 53.6°F12.0°C 52.2°F11.2°C 95% 2.3 mph SW3.7 kmh SW 3.4 mph5.5 kmh 30.07 in1018.3 mb - 0.30 in7.6 mm 0.30 in7.6 mm
09:37 PM 53.6°F12.0°C 52.2°F11.2°C 95% Calm Calm 1.1 mph1.8 kmh 30.07 in1018.3 mb - 0.30 in7.6 mm 0.30 in7.6 mm
09:43 PM 53.6°F12.0°C 51.9°F11.1°C 94% 1.1 mph SW1.8 kmh SW 3.4 mph5.5 kmh 30.07 in1018.3 mb - 0.30 in7.6 mm 0.30 in7.6 mm
09:48 PM 53.5°F11.9°C 51.9°F11.1°C 94% 2.3 mph W3.7 kmh W 3.4 mph5.5 kmh 30.07 in1018.3 mb - 0.30 in7.6 mm 0.30 in7.6 mm
09:54 PM 53.5°F11.9°C 51.8°F11.0°C 94% 2.3 mph WNW3.7 kmh WNW 3.4 mph5.5 kmh 30.07 in1018.3 mb - 0.30 in7.6 mm 0.30 in7.6 mm
10:00 PM 53.5°F11.9°C 51.8°F11.0°C 94% 2.3 mph WSW3.7 kmh WSW 3.4 mph5.5 kmh 30.07 in1018.3 mb - 0.30 in7.6 mm 0.30 in7.6 mm
10:05 PM 53.5°F11.9°C 51.8°F11.0°C 94% 1.1 mph WSW1.8 kmh WSW 3.4 mph5.5 kmh 30.07 in1018.3 mb - 0.30 in7.6 mm 0.30 in7.6 mm
10:11 PM 53.5°F11.9°C 51.8°F11.0°C 94% 1.1 mph SSW1.8 kmh SSW 3.4 mph5.5 kmh 30.07 in1018.3 mb - 0.30 in7.6 mm 0.30 in7.6 mm
10:16 PM 53.4°F11.9°C 51.8°F11.0°C 94% 2.3 mph WNW3.7 kmh WNW 3.4 mph5.5 kmh 30.07 in1018.3 mb - 0.30 in7.6 mm 0.30 in7.6 mm
10:22 PM 53.4°F11.9°C 51.7°F10.9°C 94% 2.3 mph WSW3.7 kmh WSW 3.4 mph5.5 kmh 30.07 in1018.3 mb - 0.30 in7.6 mm 0.30 in7.6 mm
10:28 PM 53.3°F11.8°C 51.7°F10.9°C 94% 1.1 mph WSW1.8 kmh WSW 2.3 mph3.7 kmh 30.07 in1018.3 mb - 0.30 in7.6 mm 0.30 in7.6 mm
10:33 PM 53.3°F11.8°C 51.6°F10.9°C 94% Calm Calm 1.1 mph1.8 kmh 30.08 in1018.6 mb - 0.30 in7.6 mm 0.30 in7.6 mm
10:39 PM 53.3°F11.8°C 51.6°F10.9°C 94% 1.1 mph WSW1.8 kmh WSW 3.4 mph5.5 kmh 30.08 in1018.6 mb - 0.30 in7.6 mm 0.30 in7.6 mm
10:45 PM 53.3°F11.8°C 51.6°F10.9°C 94% 1.1 mph W1.8 kmh W 2.3 mph3.7 kmh 30.08 in1018.6 mb - 0.30 in7.6 mm 0.30 in7.6 mm
10:50 PM 53.2°F11.8°C 51.5°F10.8°C 94% 1.1 mph SW1.8 kmh SW 1.1 mph1.8 kmh 30.08 in1018.6 mb - 0.30 in7.6 mm 0.30 in7.6 mm
10:56 PM 53.2°F11.8°C 51.2°F10.7°C 93% 1.1 mph WSW1.8 kmh WSW 1.1 mph1.8 kmh 30.08 in1018.6 mb - 0.30 in7.6 mm 0.30 in7.6 mm
11:01 PM 53.1°F11.7°C 51.1°F10.6°C 93% 1.1 mph W1.8 kmh W 2.3 mph3.7 kmh 30.08 in1018.6 mb - 0.00 in0.0 mm 48.14 in1222.8 mm
11:07 PM 53.1°F11.7°C 51.1°F10.6°C 93% Calm Calm 2.3 mph3.7 kmh 30.08 in1018.6 mb - 0.00 in0.0 mm 48.14 in1222.8 mm
11:13 PM 53.1°F11.7°C 51.1°F10.6°C 93% Calm Calm -- 30.08 in1018.6 mb - 0.00 in0.0 mm 48.14 in1222.8 mm
11:18 PM 53.1°F11.7°C 51.1°F10.6°C 93% Calm Calm 3.4 mph5.5 kmh 30.09 in1019.0 mb - 0.00 in0.0 mm 48.14 in1222.8 mm
11:24 PM 53.1°F11.7°C 51.1°F10.6°C 93% Calm Calm 2.3 mph3.7 kmh 30.09 in1019.0 mb - 0.00 in0.0 mm 48.14 in1222.8 mm
11:30 PM 53.0°F11.7°C 51.1°F10.6°C 93% 1.1 mph WSW1.8 kmh WSW 3.4 mph5.5 kmh 30.09 in1019.0 mb - 0.00 in0.0 mm 48.14 in1222.8 mm
11:35 PM 53.0°F11.7°C 51.0°F10.6°C 93% Calm Calm 1.1 mph1.8 kmh 30.09 in1019.0 mb - 0.00 in0.0 mm 48.14 in1222.8 mm
11:41 PM 52.9°F11.6°C 50.9°F10.5°C 93% 1.1 mph SW1.8 kmh SW 3.4 mph5.5 kmh 30.09 in1019.0 mb - 0.00 in0.0 mm 48.14 in1222.8 mm
11:46 PM 52.9°F11.6°C 50.9°F10.5°C 93% 1.1 mph SW1.8 kmh SW 2.3 mph3.7 kmh 30.09 in1019.0 mb - 0.00 in0.0 mm 48.14 in1222.8 mm
11:52 PM 52.8°F11.6°C 50.8°F10.4°C 93% Calm Calm 1.1 mph1.8 kmh 30.09 in1019.0 mb - 0.00 in0.0 mm 48.14 in1222.8 mm
11:58 PM 52.8°F11.6°C 50.8°F10.4°C 93% 1.1 mph SW1.8 kmh SW 2.3 mph3.7 kmh 30.09 in1019.0 mb - 0.00 in0.0 mm 48.14 in1222.8 mm